Time;durP1;ratioP1;P1;durP2;ratioP2;P2;SDS_P1;SDS_P2;PMS_P1;PMS_P2;Temp;Humidity;BMP_temperature;BMP_pressure;BME280_temperature;BME280_humidity;BME280_pressure;Samples;Min_cycle;Max_cycle;Signal;HPM_P1;HPM_P2
2023/12/13 00:03:48;;;;;;;53.63;29.40;;;3.90;99.90;;;;;;8271544;28;20256;-65
2023/12/13 00:07:48;;;;;;;59.13;31.30;;;3.90;99.90;;;;;;8279063;28;20497;-65
2023/12/13 00:11:49;;;;;;;69.40;35.40;;;4.00;99.90;;;;;;8258751;28;20520;-66
2023/12/13 00:15:50;;;;;;;67.80;34.83;;;4.00;99.90;;;;;;8257754;28;20238;-65
2023/12/13 00:19:50;;;;;;;77.70;38.93;;;4.00;99.90;;;;;;8249255;28;20183;-65
2023/12/13 00:23:51;;;;;;;47.30;28.20;;;4.10;99.90;;;;;;8265968;28;20266;-65
2023/12/13 00:27:52;;;;;;;69.07;32.67;;;4.10;99.90;;;;;;8250101;28;20203;-65
2023/12/13 00:31:53;;;;;;;45.30;26.40;;;4.00;99.90;;;;;;8249042;28;20364;-67
2023/12/13 00:35:57;;;;;;;48.43;25.37;;;4.00;99.90;;;;;;8253043;28;20188;-66
2023/12/13 00:39:57;;;;;;;47.73;27.73;;;4.00;99.90;;;;;;8273433;28;20202;-65
2023/12/13 00:43:58;;;;;;;48.47;28.77;;;4.00;99.90;;;;;;8239635;28;20209;-66
2023/12/13 00:47:59;;;;;;;55.30;30.47;;;4.00;99.90;;;;;;8236353;28;20294;-65
2023/12/13 00:51:59;;;;;;;51.87;27.17;;;4.00;99.90;;;;;;8245449;28;20203;-66
2023/12/13 00:56:00;;;;;;;48.20;26.43;;;4.00;99.90;;;;;;8265119;28;20183;-66
2023/12/13 01:00:01;;;;;;;34.77;20.30;;;4.00;99.90;;;;;;8245665;28;20198;-65
2023/12/13 01:04:02;;;;;;;32.27;19.27;;;4.10;99.90;;;;;;8243578;28;20199;-66
2023/12/13 01:08:03;;;;;;;32.80;21.10;;;4.10;99.90;;;;;;8236142;28;20214;-65
2023/12/13 01:12:04;;;;;;;29.47;18.33;;;4.10;99.90;;;;;;8241351;28;20211;-66
2023/12/13 01:16:05;;;;;;;25.70;16.90;;;4.10;99.90;;;;;;8270812;28;20183;-64
2023/12/13 01:20:06;;;;;;;25.33;14.43;;;4.20;99.90;;;;;;8270208;28;20201;-64
2023/12/13 01:24:08;;;;;;;27.50;14.37;;;4.20;99.90;;;;;;8266296;28;20179;-65
2023/12/13 01:28:08;;;;;;;27.20;16.27;;;4.30;99.90;;;;;;8271580;28;20186;-65
2023/12/13 01:32:09;;;;;;;23.27;14.30;;;4.40;99.90;;;;;;8271409;28;20203;-65
2023/12/13 01:36:10;;;;;;;34.67;22.47;;;4.50;99.90;;;;;;8272853;28;20179;-64
2023/12/13 01:40:11;;;;;;;27.50;17.83;;;4.60;99.90;;;;;;8264743;28;20299;-66
2023/12/13 01:44:11;;;;;;;105.87;40.73;;;4.60;99.90;;;;;;8208362;28;20214;-66
2023/12/13 01:48:12;;;;;;;85.47;31.87;;;4.70;99.90;;;;;;8199824;28;20203;-66
2023/12/13 01:52:14;;;;;;;27.87;16.30;;;4.70;99.90;;;;;;8220773;28;20265;-67
2023/12/13 01:56:15;;;;;;;20.57;11.77;;;4.80;99.90;;;;;;8239396;28;20198;-66
2023/12/13 02:00:16;;;;;;;59.40;26.57;;;4.80;99.90;;;;;;8233847;28;20199;-65
2023/12/13 02:04:20;;;;;;;30.77;14.57;;;4.80;99.90;;;;;;8231092;28;20215;-67
2023/12/13 02:08:22;;;;;;;22.10;12.93;;;4.80;99.90;;;;;;8230621;28;20281;-66
2023/12/13 02:12:23;;;;;;;31.17;16.33;;;4.70;99.90;;;;;;8253431;28;20215;-66
2023/12/13 02:16:24;;;;;;;87.40;35.40;;;4.70;99.90;;;;;;8271356;28;20199;-66
2023/12/13 02:20:25;;;;;;;50.10;20.03;;;4.60;99.90;;;;;;8268344;28;20222;-66
2023/12/13 02:24:30;;;;;;;51.20;19.20;;;4.60;99.90;;;;;;8266475;28;20190;-66
2023/12/13 02:28:31;;;;;;;60.10;22.27;;;4.60;99.90;;;;;;8269764;28;20198;-66
2023/12/13 02:32:31;;;;;;;33.77;16.10;;;4.60;99.90;;;;;;8269966;28;20219;-68
2023/12/13 02:36:32;;;;;;;22.70;11.47;;;4.60;99.90;;;;;;8272928;28;20210;-69
2023/12/13 02:40:33;;;;;;;27.00;12.73;;;4.60;99.90;;;;;;8277038;28;20215;-69
2023/12/13 02:44:33;;;;;;;22.93;12.13;;;4.60;99.90;;;;;;8276998;28;20212;-68
2023/12/13 02:48:34;;;;;;;32.77;14.27;;;4.60;99.90;;;;;;8274392;28;20241;-68
2023/12/13 02:52:35;;;;;;;19.33;11.23;;;4.60;99.90;;;;;;8272215;28;20218;-68
2023/12/13 02:56:36;;;;;;;23.00;10.03;;;4.60;99.90;;;;;;8276680;28;20196;-68
2023/12/13 03:00:36;;;;;;;14.27;8.87;;;4.60;99.90;;;;;;8274066;28;20201;-68
2023/12/13 03:04:37;;;;;;;16.53;10.20;;;4.60;99.90;;;;;;8276409;28;20192;-68
2023/12/13 03:08:38;;;;;;;21.87;10.33;;;4.60;99.90;;;;;;8277370;28;20193;-68
2023/12/13 03:12:39;;;;;;;17.90;10.80;;;4.60;99.90;;;;;;8274053;28;20276;-68
2023/12/13 03:16:40;;;;;;;16.00;9.43;;;4.60;99.90;;;;;;8290651;28;20187;-68
2023/12/13 03:20:41;;;;;;;16.87;9.37;;;4.60;99.90;;;;;;8275547;28;20207;-68
2023/12/13 03:24:41;;;;;;;20.03;9.50;;;4.60;99.90;;;;;;8272485;28;20185;-68
2023/12/13 03:28:42;;;;;;;18.20;10.90;;;4.60;99.90;;;;;;8273349;28;20194;-68
2023/12/13 03:32:43;;;;;;;16.37;9.50;;;4.70;99.90;;;;;;8273748;28;20219;-68
2023/12/13 03:36:43;;;;;;;22.90;11.50;;;4.70;99.90;;;;;;8267424;28;20198;-68
2023/12/13 03:40:44;;;;;;;21.80;10.73;;;4.60;99.90;;;;;;8275445;28;20290;-68
2023/12/13 03:44:45;;;;;;;17.43;10.20;;;4.60;99.90;;;;;;8286573;28;20221;-67
2023/12/13 03:48:46;;;;;;;20.07;10.47;;;4.60;99.90;;;;;;8275439;28;20205;-66
2023/12/13 03:52:46;;;;;;;21.90;11.60;;;4.50;99.90;;;;;;8274745;28;20211;-69
2023/12/13 03:56:47;;;;;;;20.10;11.17;;;4.60;99.90;;;;;;8271985;28;20191;-70
2023/12/13 04:00:47;;;;;;;16.57;11.70;;;4.50;99.90;;;;;;8272593;28;20195;-69
2023/12/13 04:04:50;;;;;;;20.77;11.77;;;4.50;99.90;;;;;;8266406;28;20184;-68
2023/12/13 04:08:50;;;;;;;20.30;10.73;;;4.40;99.90;;;;;;8270626;28;20191;-69
2023/12/13 04:12:51;;;;;;;21.33;12.03;;;4.40;99.90;;;;;;8271845;28;20212;-68
2023/12/13 04:16:52;;;;;;;23.07;11.63;;;4.50;99.90;;;;;;8275227;28;20195;-69
2023/12/13 04:20:52;;;;;;;20.23;12.03;;;4.50;99.90;;;;;;8270072;28;20197;-68
2023/12/13 04:24:53;;;;;;;21.40;12.50;;;4.50;99.90;;;;;;8271275;28;20192;-68
2023/12/13 04:28:54;;;;;;;26.13;13.43;;;4.60;99.90;;;;;;8272235;28;20208;-68
2023/12/13 04:32:55;;;;;;;21.90;11.90;;;4.60;99.90;;;;;;8270066;28;20297;-67
2023/12/13 04:36:55;;;;;;;21.97;12.27;;;4.60;99.90;;;;;;8276720;28;20191;-67
2023/12/13 04:40:56;;;;;;;20.23;12.37;;;4.60;99.90;;;;;;8267528;28;20235;-68
2023/12/13 04:44:57;;;;;;;22.00;14.83;;;4.60;99.90;;;;;;8272950;28;20456;-68
2023/12/13 04:48:57;;;;;;;22.07;13.50;;;4.60;99.90;;;;;;8272686;28;20195;-69
2023/12/13 04:52:58;;;;;;;25.70;13.50;;;4.50;99.90;;;;;;8280051;28;20246;-68
2023/12/13 04:56:59;;;;;;;22.43;12.80;;;4.50;99.90;;;;;;8270459;28;20185;-69
2023/12/13 05:00:59;;;;;;;21.30;12.13;;;4.50;99.90;;;;;;8285505;28;20239;-68
2023/12/13 05:05:00;;;;;;;35.27;19.10;;;4.50;99.90;;;;;;8266947;28;20187;-66
2023/12/13 05:09:01;;;;;;;29.47;17.03;;;4.50;99.90;;;;;;8253875;28;20278;-66
2023/12/13 05:13:02;;;;;;;37.43;20.07;;;4.60;99.90;;;;;;8249070;28;20283;-68
2023/12/13 05:17:03;;;;;;;32.20;21.57;;;4.60;99.90;;;;;;8252922;28;20275;-70
2023/12/13 05:21:04;;;;;;;29.73;17.10;;;4.60;99.90;;;;;;8243619;28;20250;-67
2023/12/13 05:25:05;;;;;;;22.90;14.33;;;4.50;99.90;;;;;;8254390;28;20215;-68
2023/12/13 05:29:06;;;;;;;22.83;14.00;;;4.40;99.90;;;;;;8250502;28;20290;-68
2023/12/13 05:33:08;;;;;;;20.67;13.83;;;4.40;99.90;;;;;;8253207;28;20218;-68
2023/12/13 05:37:08;;;;;;;23.57;14.33;;;4.40;99.90;;;;;;8264670;28;20264;-68
2023/12/13 05:41:12;;;;;;;20.90;12.93;;;4.40;99.90;;;;;;8271204;28;20233;-69
2023/12/13 05:45:13;;;;;;;23.90;13.10;;;4.40;99.90;;;;;;8271673;28;20191;-68
2023/12/13 05:49:15;;;;;;;22.20;12.60;;;4.40;99.90;;;;;;8276231;28;20190;-68
2023/12/13 05:53:15;;;;;;;21.23;12.70;;;4.40;99.90;;;;;;8272973;28;20238;-68
2023/12/13 05:57:16;;;;;;;21.33;14.00;;;4.50;99.90;;;;;;8253120;28;20187;-68
2023/12/13 06:01:17;;;;;;;22.17;13.60;;;4.50;99.90;;;;;;8248236;28;20487;-69
2023/12/13 06:05:17;;;;;;;25.67;13.03;;;4.50;99.90;;;;;;8249521;28;20274;-68
2023/12/13 06:09:18;;;;;;;19.20;12.30;;;4.50;99.90;;;;;;8251820;28;20216;-68
2023/12/13 06:13:19;;;;;;;18.40;11.30;;;4.50;99.90;;;;;;8253507;28;20215;-67
2023/12/13 06:17:20;;;;;;;19.30;11.93;;;4.60;99.90;;;;;;8259972;28;20210;-68
2023/12/13 06:21:20;;;;;;;20.00;11.40;;;4.60;99.90;;;;;;8254258;28;20599;-69
2023/12/13 06:25:21;;;;;;;19.37;11.77;;;4.50;99.90;;;;;;8270924;28;20199;-69
2023/12/13 06:29:22;;;;;;;18.47;11.60;;;4.50;99.90;;;;;;8275202;28;20184;-67
2023/12/13 06:33:23;;;;;;;20.27;12.00;;;4.50;99.90;;;;;;8273338;28;20211;-67
2023/12/13 06:37:24;;;;;;;25.03;15.13;;;4.50;99.90;;;;;;8276233;28;20242;-68
2023/12/13 06:41:24;;;;;;;24.33;15.33;;;4.50;99.90;;;;;;8271463;28;20207;-65
2023/12/13 06:45:25;;;;;;;23.47;14.77;;;4.40;99.90;;;;;;8274152;28;20226;-65
2023/12/13 06:49:30;;;;;;;28.80;19.10;;;4.40;99.90;;;;;;8275587;28;20441;-65
2023/12/13 06:53:32;;;;;;;49.97;42.83;;;4.40;99.90;;;;;;8268455;28;20210;-66
2023/12/13 06:57:34;;;;;;;34.03;26.83;;;4.50;99.90;;;;;;8275496;28;20248;-65
2023/12/13 07:01:35;;;;;;;90.27;50.07;;;4.60;99.90;;;;;;8283348;28;20273;-64
2023/12/13 07:05:36;;;;;;;72.27;46.03;;;4.70;99.90;;;;;;8273613;28;20191;-65
2023/12/13 07:09:36;;;;;;;58.87;37.90;;;4.90;99.90;;;;;;8272029;28;20180;-64
2023/12/13 07:13:37;;;;;;;71.33;42.47;;;4.90;99.90;;;;;;8276359;28;20220;-63
2023/12/13 07:17:38;;;;;;;40.97;27.77;;;4.90;99.90;;;;;;8270522;28;20202;-65
2023/12/13 07:21:39;;;;;;;30.77;18.50;;;4.80;99.90;;;;;;8276747;28;20201;-64
2023/12/13 07:25:41;;;;;;;22.30;15.77;;;4.80;99.90;;;;;;8262374;28;20198;-64
2023/12/13 07:29:42;;;;;;;33.20;17.70;;;4.70;99.90;;;;;;8251805;28;20196;-63
2023/12/13 07:33:43;;;;;;;28.90;16.97;;;4.70;99.90;;;;;;8252030;28;20214;-64
2023/12/13 07:37:43;;;;;;;24.70;16.83;;;4.70;99.90;;;;;;8250431;28;20183;-64
2023/12/13 07:41:44;;;;;;;73.63;35.00;;;4.70;99.90;;;;;;8251625;28;20257;-64
2023/12/13 07:45:51;;;;;;;39.03;21.03;;;4.60;99.90;;;;;;8253551;28;20196;-63
2023/12/13 07:49:53;;;;;;;52.50;31.50;;;4.60;99.90;;;;;;8262787;28;20193;-63
2023/12/13 07:53:53;;;;;;;33.20;21.03;;;4.60;99.90;;;;;;8258895;28;20207;-64
2023/12/13 07:57:54;;;;;;;24.83;14.93;;;4.70;99.90;;;;;;8271982;28;20299;-64
2023/12/13 08:01:55;;;;;;;21.40;13.53;;;4.70;99.90;;;;;;8276678;28;20223;-66
2023/12/13 08:05:56;;;;;;;23.57;13.37;;;4.70;99.90;;;;;;8275625;28;20192;-64
2023/12/13 08:09:59;;;;;;;19.40;13.03;;;4.80;99.90;;;;;;8274167;28;20185;-65
2023/12/13 08:13:59;;;;;;;16.93;12.10;;;4.80;99.90;;;;;;8257732;28;20226;-64
2023/12/13 08:18:00;;;;;;;18.27;12.43;;;4.80;99.90;;;;;;8248689;28;20192;-64
2023/12/13 08:22:02;;;;;;;21.80;14.10;;;4.80;99.90;;;;;;8250017;28;20259;-65
2023/12/13 08:26:03;;;;;;;22.13;13.13;;;4.80;99.90;;;;;;8236432;28;20187;-64
2023/12/13 08:30:04;;;;;;;21.43;13.37;;;4.90;99.90;;;;;;8271226;28;20310;-65
2023/12/13 08:34:08;;;;;;;23.20;14.73;;;4.90;99.90;;;;;;8234733;28;20225;-66
2023/12/13 08:38:09;;;;;;;23.83;15.90;;;4.90;99.90;;;;;;8225941;28;20190;-65
2023/12/13 08:42:09;;;;;;;46.23;24.50;;;4.90;99.90;;;;;;8252992;28;20207;-65
2023/12/13 08:46:11;;;;;;;45.17;25.67;;;4.90;99.90;;;;;;8267099;28;20206;-66
2023/12/13 08:50:11;;;;;;;30.20;19.40;;;5.00;99.90;;;;;;8276485;28;20184;-65
2023/12/13 08:54:12;;;;;;;25.53;16.53;;;5.00;99.90;;;;;;8273074;28;20311;-65
2023/12/13 08:58:13;;;;;;;26.77;17.00;;;5.00;99.90;;;;;;8269100;28;20292;-64
2023/12/13 09:02:14;;;;;;;23.23;15.47;;;5.10;99.90;;;;;;8258037;28;20265;-64
2023/12/13 09:06:15;;;;;;;23.83;14.47;;;5.10;99.90;;;;;;8263834;28;20207;-64
2023/12/13 09:10:15;;;;;;;22.97;15.33;;;5.10;99.90;;;;;;8254613;28;20300;-65
2023/12/13 09:14:16;;;;;;;24.83;15.83;;;5.10;99.90;;;;;;8255738;28;20187;-64
2023/12/13 09:18:17;;;;;;;27.40;19.27;;;5.10;99.90;;;;;;8257421;28;20192;-64
2023/12/13 09:22:18;;;;;;;26.40;16.80;;;5.10;99.90;;;;;;8282121;28;20258;-64
2023/12/13 09:26:19;;;;;;;23.70;15.10;;;5.10;99.90;;;;;;8263695;28;20193;-64
2023/12/13 09:30:20;;;;;;;30.87;17.23;;;5.20;99.90;;;;;;8273024;28;20179;-65
2023/12/13 09:34:21;;;;;;;28.70;17.60;;;5.20;99.90;;;;;;8265955;28;20195;-64
2023/12/13 09:38:22;;;;;;;27.73;18.43;;;5.30;99.90;;;;;;8270031;28;20183;-64
2023/12/13 09:42:24;;;;;;;29.27;20.53;;;5.40;99.90;;;;;;8257012;28;20248;-65
2023/12/13 09:46:26;;;;;;;40.70;23.67;;;5.50;99.90;;;;;;8251232;28;20228;-64
2023/12/13 09:50:30;;;;;;;35.70;21.13;;;5.60;99.90;;;;;;8252730;28;20590;-65
2023/12/13 09:54:31;;;;;;;40.97;26.83;;;5.70;99.90;;;;;;8260261;28;20218;-64
2023/12/13 09:58:32;;;;;;;35.17;23.27;;;5.80;99.90;;;;;;8263319;28;20186;-64
2023/12/13 10:02:32;;;;;;;29.53;16.90;;;5.80;99.90;;;;;;8260434;28;20203;-66
2023/12/13 10:06:33;;;;;;;24.87;15.13;;;5.90;99.90;;;;;;8245536;28;20213;-66
2023/12/13 10:10:35;;;;;;;25.60;16.47;;;5.80;99.90;;;;;;8250321;28;20199;-64
2023/12/13 10:14:36;;;;;;;21.00;14.70;;;5.90;99.90;;;;;;8264025;28;20186;-64
2023/12/13 10:18:39;;;;;;;28.50;17.87;;;5.90;99.90;;;;;;8267677;28;20274;-64
2023/12/13 10:22:40;;;;;;;59.53;33.50;;;5.90;99.90;;;;;;8268293;28;20183;-64
2023/12/13 10:26:41;;;;;;;43.80;25.60;;;5.90;99.90;;;;;;8275056;28;20191;-65
2023/12/13 10:30:41;;;;;;;42.87;23.53;;;6.00;99.90;;;;;;8276491;28;20211;-66
2023/12/13 10:34:42;;;;;;;34.97;19.40;;;6.00;99.90;;;;;;8272123;28;20183;-64
2023/12/13 10:38:45;;;;;;;38.23;21.27;;;6.20;99.90;;;;;;8267693;28;20294;-65
2023/12/13 10:42:52;;;;;;;30.67;20.17;;;6.30;99.90;;;;;;8261907;28;20234;-64
2023/12/13 10:46:56;;;;;;;27.93;17.63;;;6.40;99.90;;;;;;8263768;28;20206;-64
2023/12/13 10:50:59;;;;;;;25.07;16.87;;;6.40;99.90;;;;;;8252594;28;20230;-64
2023/12/13 10:55:00;;;;;;;29.07;17.10;;;6.40;99.90;;;;;;8262496;28;20179;-65
2023/12/13 10:59:01;;;;;;;30.20;19.90;;;6.50;99.90;;;;;;8275211;28;20179;-64
2023/12/13 11:03:41;;;;;;;32.93;21.73;;;6.60;99.90;;;;;;8288349;28;20187;-67
2023/12/13 11:07:44;;;;;;;25.03;16.00;;;6.70;99.90;;;;;;8267601;28;20206;-67
2023/12/13 11:11:45;;;;;;;23.70;14.63;;;6.70;99.90;;;;;;8285048;28;20221;-67
2023/12/13 11:15:46;;;;;;;22.97;15.77;;;6.80;99.90;;;;;;8276182;28;20214;-67
2023/12/13 11:19:48;;;;;;;22.27;15.70;;;6.90;99.90;;;;;;8271687;28;20198;-67
2023/12/13 11:23:49;;;;;;;18.40;13.60;;;7.00;99.90;;;;;;8275326;28;20190;-67
2023/12/13 11:27:55;;;;;;;19.20;13.20;;;7.20;99.90;;;;;;8254903;28;20290;-68
2023/12/13 11:32:07;;;;;;;20.57;14.10;;;7.40;99.90;;;;;;8255992;28;20245;-68
2023/12/13 11:36:11;;;;;;;20.53;14.57;;;7.60;99.90;;;;;;8258132;28;20171;-67
2023/12/13 11:40:12;;;;;;;23.60;16.93;;;7.70;99.90;;;;;;8267546;28;20198;-67
2023/12/13 11:44:13;;;;;;;22.40;15.97;;;8.00;99.90;;;;;;8269072;28;20211;-67
2023/12/13 11:48:14;;;;;;;23.80;17.40;;;8.00;99.90;;;;;;8252123;28;20261;-67
2023/12/13 11:52:16;;;;;;;26.13;19.83;;;8.20;99.90;;;;;;8225555;28;20204;-67
2023/12/13 11:56:18;;;;;;;27.33;20.07;;;8.50;99.90;;;;;;8229541;28;20325;-68
2023/12/13 12:00:20;;;;;;;22.37;17.63;;;8.70;99.90;;;;;;8250604;28;21017;-68
2023/12/13 12:04:24;;;;;;;26.03;18.57;;;8.90;99.90;;;;;;8217147;28;20182;-68
2023/12/13 12:08:25;;;;;;;22.40;16.80;;;8.90;99.90;;;;;;8230116;28;20189;-68
2023/12/13 12:12:26;;;;;;;22.37;17.23;;;8.70;99.90;;;;;;8218038;28;20536;-68
2023/12/13 12:16:26;;;;;;;28.93;18.80;;;8.50;99.90;;;;;;8233402;28;20278;-68
2023/12/13 12:20:28;;;;;;;31.23;21.00;;;8.40;99.90;;;;;;8265984;28;20251;-69
2023/12/13 12:24:28;;;;;;;27.77;19.13;;;8.30;99.90;;;;;;8268271;28;20188;-68
2023/12/13 12:28:29;;;;;;;30.47;21.50;;;8.10;99.90;;;;;;8281187;28;20218;-68
2023/12/13 12:32:30;;;;;;;33.07;23.03;;;8.10;99.90;;;;;;8270680;28;20224;-65
2023/12/13 12:36:32;;;;;;;27.87;19.77;;;8.10;99.90;;;;;;8267576;28;20202;-65
2023/12/13 12:40:34;;;;;;;27.40;18.67;;;8.20;99.90;;;;;;8287299;28;20187;-65
2023/12/13 12:44:34;;;;;;;28.37;20.53;;;8.20;99.90;;;;;;8265800;28;20206;-66
2023/12/13 12:48:35;;;;;;;25.03;18.10;;;8.20;99.90;;;;;;8246083;28;20200;-65
2023/12/13 12:52:38;;;;;;;35.77;22.00;;;8.20;99.90;;;;;;8254559;28;20216;-69
2023/12/13 12:56:38;;;;;;;33.03;21.93;;;8.10;99.90;;;;;;8248070;28;20235;-68
2023/12/13 13:00:39;;;;;;;30.73;21.47;;;7.90;99.90;;;;;;8266520;28;20193;-68
2023/12/13 13:04:43;;;;;;;31.23;21.30;;;7.90;99.90;;;;;;8261351;28;20298;-68
2023/12/13 13:08:44;;;;;;;31.60;21.80;;;8.00;99.90;;;;;;8245469;28;20230;-67
2023/12/13 13:12:44;;;;;;;31.07;23.40;;;8.20;99.90;;;;;;8247784;28;20249;-68
2023/12/13 13:16:45;;;;;;;29.93;20.83;;;8.40;99.90;;;;;;8272727;28;20271;-67
2023/12/13 13:20:46;;;;;;;33.40;22.80;;;8.50;99.90;;;;;;8265220;28;20186;-68
2023/12/13 13:24:46;;;;;;;28.53;20.03;;;8.50;99.90;;;;;;8269277;28;20188;-67
2023/12/13 13:28:47;;;;;;;28.03;19.90;;;8.40;99.90;;;;;;8285712;28;20183;-68
2023/12/13 13:32:48;;;;;;;28.67;20.10;;;8.20;99.90;;;;;;8269698;28;20348;-68
2023/12/13 13:36:49;;;;;;;26.07;18.93;;;8.10;99.90;;;;;;8267237;28;20184;-68
2023/12/13 13:40:50;;;;;;;25.40;18.03;;;8.00;99.90;;;;;;8242991;28;20204;-68
2023/12/13 13:44:50;;;;;;;29.73;22.50;;;7.90;99.90;;;;;;8260863;28;20214;-67
2023/12/13 13:48:52;;;;;;;28.63;23.23;;;7.90;99.90;;;;;;8256758;28;20186;-65
2023/12/13 13:52:53;;;;;;;29.67;22.00;;;7.90;99.90;;;;;;8245044;28;20610;-64
2023/12/13 13:56:54;;;;;;;31.60;22.63;;;7.80;99.90;;;;;;8251679;28;20192;-67
2023/12/13 14:00:55;;;;;;;30.03;22.27;;;7.70;99.90;;;;;;8263179;28;20192;-66
2023/12/13 14:04:56;;;;;;;30.93;20.70;;;7.50;99.90;;;;;;8238491;28;20191;-65
2023/12/13 14:08:57;;;;;;;29.63;21.17;;;7.40;99.90;;;;;;8247045;28;20191;-64
2023/12/13 14:12:57;;;;;;;29.47;21.03;;;7.40;99.90;;;;;;8243796;28;20214;-64
2023/12/13 14:16:58;;;;;;;27.77;20.83;;;7.30;99.90;;;;;;8251331;28;20191;-65
2023/12/13 14:20:59;;;;;;;27.60;20.10;;;7.30;99.90;;;;;;8257826;28;20214;-65
2023/12/13 14:25:00;;;;;;;28.50;20.03;;;7.30;99.90;;;;;;8247468;28;20193;-65
2023/12/13 14:29:01;;;;;;;32.30;20.40;;;7.30;99.90;;;;;;8256749;28;20191;-63
2023/12/13 14:33:02;;;;;;;27.00;19.80;;;7.30;99.90;;;;;;8221530;28;20298;-64
2023/12/13 14:37:02;;;;;;;58.47;35.17;;;7.20;99.90;;;;;;8257829;28;20179;-66
2023/12/13 14:41:04;;;;;;;60.57;39.37;;;7.20;99.90;;;;;;8250860;28;20293;-64
2023/12/13 14:45:06;;;;;;;49.73;33.83;;;7.30;99.90;;;;;;8268897;28;20191;-64
2023/12/13 14:49:07;;;;;;;57.50;35.63;;;7.30;99.90;;;;;;8272793;28;20183;-65
2023/12/13 14:53:09;;;;;;;42.10;29.23;;;7.20;99.90;;;;;;8265444;28;20211;-65
2023/12/13 14:57:10;;;;;;;76.97;46.47;;;7.20;99.90;;;;;;8276441;28;20258;-65
2023/12/13 15:01:12;;;;;;;58.27;38.33;;;7.20;99.90;;;;;;8274017;28;20186;-67
2023/12/13 15:05:14;;;;;;;54.47;41.93;;;7.20;99.90;;;;;;8287071;28;20446;-68
2023/12/13 15:09:14;;;;;;;58.37;36.90;;;7.20;99.90;;;;;;8273977;28;20184;-68
2023/12/13 15:13:17;;;;;;;44.50;29.47;;;7.20;99.90;;;;;;8274417;28;20242;-66
2023/12/13 15:17:18;;;;;;;35.27;24.73;;;7.10;99.90;;;;;;8270217;28;20180;-66
2023/12/13 15:21:19;;;;;;;44.37;31.03;;;7.10;99.90;;;;;;8270442;28;20257;-66
2023/12/13 15:25:20;;;;;;;48.00;32.57;;;7.10;99.90;;;;;;8273139;28;20298;-65
2023/12/13 15:29:21;;;;;;;38.77;28.43;;;7.10;99.90;;;;;;8274685;28;20207;-66
2023/12/13 15:33:22;;;;;;;44.13;30.20;;;7.10;99.90;;;;;;8276401;28;20323;-66
2023/12/13 15:37:23;;;;;;;38.77;27.37;;;7.10;99.90;;;;;;8268483;28;20188;-65
2023/12/13 15:41:24;;;;;;;46.43;30.87;;;7.00;99.90;;;;;;8270632;28;20207;-65
2023/12/13 15:45:25;;;;;;;43.80;29.90;;;6.90;99.90;;;;;;8250748;28;20195;-65
2023/12/13 15:49:26;;;;;;;41.40;28.37;;;6.90;99.90;;;;;;8264481;28;20198;-65
2023/12/13 15:53:26;;;;;;;51.20;31.77;;;6.80;99.90;;;;;;8253935;28;20210;-63
2023/12/13 15:57:27;;;;;;;47.07;31.13;;;6.80;99.90;;;;;;8254373;28;20188;-63
2023/12/13 16:01:28;;;;;;;50.03;32.17;;;6.80;99.90;;;;;;8271260;28;20191;-64
2023/12/13 16:05:29;;;;;;;42.87;28.73;;;6.80;99.90;;;;;;8272834;28;20183;-66
2023/12/13 16:09:30;;;;;;;43.07;29.03;;;6.70;99.90;;;;;;8273207;28;20192;-66
2023/12/13 16:13:31;;;;;;;46.13;30.53;;;6.80;99.90;;;;;;8269317;28;20222;-68
2023/12/13 16:17:32;;;;;;;51.70;30.23;;;6.80;99.90;;;;;;8271766;28;20179;-69
2023/12/13 16:21:32;;;;;;;44.70;28.70;;;6.70;99.90;;;;;;8282637;28;20195;-65
2023/12/13 16:25:33;;;;;;;48.83;31.67;;;6.70;99.90;;;;;;8272732;28;20250;-64
2023/12/13 16:29:35;;;;;;;45.03;28.77;;;6.70;99.90;;;;;;8263496;28;20218;-65
2023/12/13 16:33:37;;;;;;;45.80;30.13;;;6.70;99.90;;;;;;8263561;28;20223;-67
2023/12/13 16:37:38;;;;;;;46.43;30.90;;;6.70;99.90;;;;;;8275345;28;20179;-66
2023/12/13 16:41:39;;;;;;;47.93;29.70;;;6.70;99.90;;;;;;8268759;28;20308;-66
2023/12/13 16:45:40;;;;;;;48.83;32.57;;;6.70;99.90;;;;;;8248968;28;20212;-65
2023/12/13 16:49:46;;;;;;;49.20;30.33;;;6.70;99.90;;;;;;8272609;28;20199;-67
2023/12/13 16:53:47;;;;;;;48.70;30.20;;;6.70;99.90;;;;;;8267387;28;20211;-67
2023/12/13 16:57:48;;;;;;;43.07;28.63;;;6.70;99.90;;;;;;8260579;28;20837;-66
2023/12/13 17:01:49;;;;;;;44.77;27.97;;;6.70;99.90;;;;;;8259201;28;20203;-67
2023/12/13 17:05:53;;;;;;;47.03;29.23;;;6.80;99.90;;;;;;8255741;28;20259;-67
2023/12/13 17:09:55;;;;;;;48.43;28.93;;;6.80;99.90;;;;;;8250648;28;20194;-65
2023/12/13 17:13:59;;;;;;;51.40;33.40;;;6.80;99.90;;;;;;8258797;28;20223;-66
2023/12/13 17:18:00;;;;;;;51.00;32.20;;;6.80;99.90;;;;;;8255173;28;20510;-67
2023/12/13 17:22:02;;;;;;;49.40;30.93;;;6.80;99.90;;;;;;8256849;28;20195;-68
2023/12/13 17:26:03;;;;;;;53.43;34.00;;;6.80;99.90;;;;;;8263661;28;20277;-69
2023/12/13 17:30:04;;;;;;;81.40;49.17;;;6.80;99.90;;;;;;8227586;28;20265;-69
2023/12/13 17:34:05;;;;;;;80.83;49.83;;;6.80;99.90;;;;;;8250770;28;20207;-68
2023/12/13 17:38:06;;;;;;;73.73;46.30;;;6.80;99.90;;;;;;8245988;28;20261;-69
2023/12/13 17:42:07;;;;;;;72.53;47.07;;;6.80;99.90;;;;;;8226415;28;20280;-70
2023/12/13 17:46:09;;;;;;;67.73;42.10;;;6.80;99.90;;;;;;8204105;28;20218;-70
2023/12/13 17:50:11;;;;;;;59.13;37.77;;;6.80;99.90;;;;;;8237592;28;20234;-70
2023/12/13 17:54:14;;;;;;;54.07;32.80;;;6.80;99.90;;;;;;8236999;28;20242;-70
2023/12/13 17:58:15;;;;;;;48.70;29.90;;;6.80;99.90;;;;;;8245336;28;20183;-70
2023/12/13 18:02:17;;;;;;;56.33;36.53;;;6.90;99.90;;;;;;8277533;28;20286;-70
2023/12/13 18:06:18;;;;;;;50.73;36.73;;;6.90;99.90;;;;;;8271031;28;20233;-70
2023/12/13 18:10:20;;;;;;;58.17;38.17;;;6.80;99.90;;;;;;8287045;28;20309;-70
2023/12/13 18:14:21;;;;;;;57.17;36.23;;;6.80;99.90;;;;;;8276007;28;20215;-69
2023/12/13 18:18:22;;;;;;;98.00;50.67;;;6.80;99.90;;;;;;8270968;28;20286;-71
2023/12/13 18:22:23;;;;;;;127.53;61.07;;;6.80;99.90;;;;;;8268757;28;20195;-71
2023/12/13 18:26:24;;;;;;;90.10;53.17;;;6.80;99.90;;;;;;8290404;28;20191;-70
2023/12/13 18:30:25;;;;;;;94.03;57.27;;;6.70;99.90;;;;;;8260479;28;20197;-71
2023/12/13 18:34:26;;;;;;;133.93;69.43;;;6.70;99.90;;;;;;8226856;28;20481;-70
2023/12/13 18:38:29;;;;;;;132.57;64.93;;;6.80;99.90;;;;;;8223491;28;20222;-70
2023/12/13 18:42:30;;;;;;;120.27;64.40;;;6.80;99.90;;;;;;8267337;28;20195;-70
2023/12/13 18:46:31;;;;;;;102.67;55.33;;;6.80;99.90;;;;;;8228145;28;20211;-71
2023/12/13 18:50:32;;;;;;;80.87;47.17;;;6.80;99.90;;;;;;8234292;28;20192;-70
2023/12/13 18:54:34;;;;;;;68.60;39.83;;;6.80;99.90;;;;;;8231532;28;20236;-70
2023/12/13 18:58:35;;;;;;;51.27;32.97;;;6.80;99.90;;;;;;8250038;28;20183;-71
2023/12/13 19:02:36;;;;;;;44.83;30.03;;;6.80;99.90;;;;;;8271420;28;20191;-70
2023/12/13 19:06:37;;;;;;;39.93;28.60;;;6.70;99.90;;;;;;8272958;28;20530;-70
2023/12/13 19:10:38;;;;;;;40.27;28.23;;;6.70;99.90;;;;;;8273780;28;20187;-70
2023/12/13 19:14:39;;;;;;;41.30;26.50;;;6.70;99.90;;;;;;8277559;28;21302;-69
2023/12/13 19:18:40;;;;;;;36.93;25.33;;;6.70;99.90;;;;;;8251080;28;20511;-69
2023/12/13 19:22:43;;;;;;;32.70;22.73;;;6.70;99.90;;;;;;8272873;28;20206;-69
2023/12/13 19:26:47;;;;;;;31.13;21.33;;;6.70;99.90;;;;;;8275034;28;20187;-69
2023/12/13 19:30:48;;;;;;;32.03;22.73;;;6.70;99.90;;;;;;8268471;28;20199;-69
2023/12/13 19:34:49;;;;;;;31.30;23.33;;;6.60;99.90;;;;;;8268216;28;20261;-69
2023/12/13 19:38:50;;;;;;;31.57;21.47;;;6.60;99.90;;;;;;8260485;28;20281;-69
2023/12/13 19:42:51;;;;;;;31.23;21.87;;;6.50;99.90;;;;;;8246895;28;20211;-69
2023/12/13 19:46:52;;;;;;;29.93;22.50;;;6.40;99.90;;;;;;8244151;28;20210;-68
2023/12/13 19:50:53;;;;;;;35.03;22.67;;;6.40;99.90;;;;;;8256327;28;20195;-68
2023/12/13 19:54:54;;;;;;;34.23;24.20;;;6.30;99.90;;;;;;8246458;28;20187;-69
2023/12/13 19:58:55;;;;;;;37.10;24.60;;;6.30;99.90;;;;;;8244742;28;20187;-68
2023/12/13 20:02:57;;;;;;;33.93;24.50;;;6.30;99.90;;;;;;8265827;28;20413;-69
2023/12/13 20:06:58;;;;;;;34.77;24.70;;;6.30;99.90;;;;;;8268655;28;20187;-69
2023/12/13 20:10:59;;;;;;;32.03;22.57;;;6.20;99.90;;;;;;8258374;28;20180;-68
2023/12/13 20:15:00;;;;;;;30.80;20.97;;;6.20;99.90;;;;;;8271990;28;20182;-68
2023/12/13 20:19:00;;;;;;;30.63;21.47;;;6.10;99.90;;;;;;8265819;28;20357;-67
2023/12/13 20:23:01;;;;;;;30.80;20.43;;;6.10;99.90;;;;;;8288243;28;20495;-67
2023/12/13 20:27:03;;;;;;;31.57;21.40;;;6.10;99.90;;;;;;8265393;28;20450;-67
2023/12/13 20:31:04;;;;;;;27.20;19.83;;;6.10;99.90;;;;;;8269722;28;20182;-68
2023/12/13 20:35:05;;;;;;;32.00;22.00;;;6.10;99.90;;;;;;8264425;28;20184;-67
2023/12/13 20:39:07;;;;;;;35.67;22.97;;;6.10;99.90;;;;;;8270885;28;20187;-68